Wetterstation Vordersexau
Wetterdaten: Februar 2016
Datum Temp. A. Feuchte A. Luftdruck Regen Wind Richtung Taupunkt Windchill Windben
01.02.2016 12,1 C 78 % 1022,8 hPa 0,0 l/m 26,5 km/h W 8,3 C 4,6 C 14,7 km/h
02.02.2016 11,1 C 75 % 1020,4 hPa 0,0 l/m 22,2 km/h W-SW 6,9 C 4,2 C 12,4 km/h
03.02.2016 4,6 C 87 % 1019,7 hPa 5,0 l/m 2,9 km/h SO 2,6 C 3,7 C 1,6 km/h
04.02.2016 4,0 C 87 % 1025,5 hPa 1,2 l/m 14,8 km/h W 2,0 C -1,4 C 8,2 km/h
05.02.2016 7,4 C 82 % 1024,3 hPa 1,7 l/m 0,9 km/h SO 4,5 C 7,2 C 0,5 km/h
06.02.2016 7,6 C 75 % 1013,3 hPa 0,0 l/m 2,7 km/h SO 3,1 C 7,0 C 1,5 km/h
07.02.2016 6,1 C 81 % 1005,3 hPa 4,1 l/m 8,2 km/h W 3,0 C 3,2 C 4,6 km/h
08.02.2016 9,6 C 72 % 1004,9 hPa 4,1 l/m 29,5 km/h W 4,7 C 0,8 C 16,4 km/h
09.02.2016 8,9 C 77 % 996,7 hPa 3,7 l/m 16,9 km/h W-SW 5,1 C 3,6 C 9,4 km/h
10.02.2016 4,0 C 78 % 999,1 hPa 0,8 l/m 21,1 km/h W 0,4 C -4,1 C 11,7 km/h
11.02.2016 4,4 C 74 % 1005,3 hPa 0,0 l/m 11,0 km/h W-SW 0,1 C 0,1 C 6,1 km/h
12.02.2016 4,4 C 79 % 997,0 hPa 1,2 l/m 3,6 km/h S-SO 0,9 C 3,3 C 2,0 km/h
13.02.2016 6,7 C 82 % 988,5 hPa 3,3 l/m 12,9 km/h W 3,8 C 2,5 C 7,2 km/h
14.02.2016 6,5 C 83 % 989,4 hPa 3,3 l/m 8,7 km/h S-SW 3,7 C 3,6 C 4,9 km/h
15.02.2016 3,5 C 87 % 1009,3 hPa 2,5 l/m 0,0 km/h NO 1,6 C 3,5 C 0,0 km/h
16.02.2016 3,2 C 81 % 1026,3 hPa 0,0 l/m 3,4 km/h NO 0,2 C 2,2 C 1,9 km/h
17.02.2016 1,6 C 85 % 1016,8 hPa 0,0 l/m 0,5 km/h W -0,6 C 1,4 C 0,3 km/h
18.02.2016 5,1 C 78 % 1013,2 hPa 0,4 l/m 0,9 km/h SW 1,4 C 5,1 C 0,5 km/h
19.02.2016 2,6 C 86 % 1019,6 hPa 2,5 l/m 2,8 km/h SO 0,5 C 2,0 C 1,5 km/h
20.02.2016 5,8 C 82 % 1020,0 hPa 1,2 l/m 19,7 km/h W-SW 2,9 C -1,0 C 11,0 km/h
21.02.2016 11,6 C 78 % 1018,5 hPa 0,0 l/m 20,0 km/h W 7,8 C 6,0 C 11,1 km/h
22.02.2016 12,3 C 73 % 1011,9 hPa 0,0 l/m 17,5 km/h W-SW 7,6 C 7,5 C 9,7 km/h
23.02.2016 6,1 C 85 % 1011,9 hPa 8,3 l/m 11,9 km/h W 3,7 C 2,3 C 6,6 km/h
24.02.2016 5,3 C 76 % 1014,4 hPa 1,7 l/m 2,3 km/h SO 1,1 C 4,7 C 1,3 km/h
25.02.2016 3,0 C 84 % 1010,2 hPa 9,1 l/m 0,2 km/h SO 0,4 C 3,0 C 0,1 km/h
26.02.2016 3,2 C 75 % 1008,5 hPa 0,0 l/m 0,9 km/h SO -1,1 C 2,9 C 0,5 km/h
27.02.2016 2,2 C 73 % 1001,7 hPa 0,0 l/m 0,7 km/h O-NO -4,1 C 2,0 C 0,4 km/h
28.02.2016 1,7 C 65 % 1004,7 hPa 0,0 l/m 0,8 km/h S-SO -13,0 C 1,5 C 0,4 km/h
29.02.2016 2,3 C 79 % 1011,8 hPa 0,0 l/m 1,3 km/h NO -1,0 C 1,8 C 0,7 km/h
Min-Datum 27.02.16 27.02.16 13.02.16 17 Tage 03.02.16 - 27.02.16 10.02.16 03.02.16
Min-Zeit 06:42 12:42 20:42 - 00:42 - 12:42 05:42 00:42
Minimum -4,1 C 0 % 984,2 hPa - 0,0 km/h - -60,0 C -11,6 C 0,0 km/h
Max-Datum 06.02.16 03.02.16 16.02.16 25.02.16 08.02.16 - 05.02.16 06.02.16 08.02.16
Max-Zeit 14:42 21:42 11:42 13:42 11:42 - 11:42 15:42 11:42
Maximum 18,7 C 89 % 1028,3 hPa 9,1 l/m 64,8 km/h
W
- 11,4 C 17,4 C 36,0 km/h
W
Durchschnitt 5,7 C 79 % 1010,7 hPa #54,3 l/m 9,1 km/h W 1,9 C 2,9 C 5,1 km/h

Durchschnitt Minimum Temp.2,6 C
Durchschnitt Maximum Temp.10,6 C
www.sexauwetter.de